Time;durP1;ratioP1;P1;durP2;ratioP2;P2;SDS_P1;SDS_P2;PMS_P1;PMS_P2;Temp;Humidity;BMP_temperature;BMP_pressure;BME280_temperature;BME280_humidity;BME280_pressure;Samples;Min_cycle;Max_cycle;Signal;HPM_P1;HPM_P2
2022/09/08 00:00:50;;;;;;;;;;;;;;;;;;5082414;28;19924;-57
2022/09/08 00:03:15;;;;;;;;;;;;;;;;;;5068360;28;20271;-57
2022/09/08 00:05:40;;;;;;;;;;;;;;;;;;5076672;28;20425;-55
2022/09/08 00:08:05;;;;;;;;;;;;;;;;;;5076946;28;20080;-57
2022/09/08 00:10:30;;;;;;;;;;;;;;;;;;5057243;28;19922;-57
2022/09/08 00:12:56;;;;;;;;;;;;;;;;;;5079216;28;20436;-58
2022/09/08 00:15:21;;;;;;;;;;;;;;;;;;5056350;28;19955;-57
2022/09/08 00:17:46;;;;;;;;;;;;;;;;;;5076533;28;19916;-57
2022/09/08 00:20:12;;;;;;;;;;;;;;;;;;5081900;28;19928;-56
2022/09/08 00:22:37;;;;;;;;;;;;;;;;;;5075263;28;19955;-57
2022/09/08 00:25:02;;;;;;;;;;;;;;;;;;5080893;28;20523;-57
2022/09/08 00:27:28;;;;;;;;;;;;;;;;;;5074582;28;19923;-57
2022/09/08 00:29:53;;;;;;;;;;;;;;;;;;5075684;28;19926;-56
2022/09/08 00:32:20;;;;;;;;;;;;;;;;;;5081349;28;19920;-58
2022/09/08 00:34:45;;;;;;;;;;;;;;;;;;5075068;28;19923;-55
2022/09/08 00:37:10;;;;;;;;;;;;;;;;;;5066208;28;19924;-55
2022/09/08 00:39:35;;;;;;;;;;;;;;;;;;5077951;28;19998;-56
2022/09/08 00:42:00;;;;;;;;;;;;;;;;;;5076577;28;19928;-57
2022/09/08 00:44:26;;;;;;;;;;;;;;;;;;5080826;28;19924;-57
2022/09/08 00:46:51;;;;;;;;;;;;;;;;;;5074738;28;19923;-58
2022/09/08 00:49:16;;;;;;;;;;;;;;;;;;5081882;28;19923;-56
2022/09/08 00:51:42;;;;;;;;;;;;;;;;;;5074069;28;19988;-57
2022/09/08 00:54:07;;;;;;;;;;;;;;;;;;5073788;28;20322;-57
2022/09/08 00:56:32;;;;;;;;;;;;;;;;;;5062116;28;19912;-57
2022/09/08 00:58:58;;;;;;;;;;;;;;;;;;5075040;28;19923;-57
2022/09/08 01:01:23;;;;;;;;;;;;;;;;;;5078878;28;20015;-58
2022/09/08 01:03:48;;;;;;;;;;;;;;;;;;5076306;28;20322;-57
2022/09/08 01:06:13;;;;;;;;;;;;;;;;;;5071634;28;19931;-56
2022/09/08 01:12:43;;;;;;;;;;;;;;;;;;5073291;28;20129;-54
2022/09/08 01:14:08;;;;;;;;;;;;;;;;;;5072985;28;19982;-57
2022/09/08 01:16:34;;;;;;;;;;;;;;;;;;5062732;28;20317;-57
2022/09/08 01:18:59;;;;;;;;;;;;;;;;;;5074564;28;19916;-57
2022/09/08 01:21:26;;;;;;;;;;;;;;;;;;5079117;28;20280;-56
2022/09/08 01:23:52;;;;;;;;;;;;;;;;;;5075573;28;19918;-59
2022/09/08 01:26:17;;;;;;;;;;;;;;;;;;5073226;28;19942;-56
2022/09/08 01:28:42;;;;;;;;;;;;;;;;;;5081266;28;20280;-54
2022/09/08 01:31:07;;;;;;;;;;;;;;;;;;5075781;28;20668;-57
2022/09/08 01:33:32;;;;;;;;;;;;;;;;;;5081009;28;19974;-55
2022/09/08 01:35:58;;;;;;;;;;;;;;;;;;5073856;28;20009;-56
2022/09/08 01:38:23;;;;;;;;;;;;;;;;;;5072786;28;19912;-57
2022/09/08 01:40:48;;;;;;;;;;;;;;;;;;5079930;28;19942;-56
2022/09/08 01:43:13;;;;;;;;;;;;;;;;;;5073366;28;19921;-57
2022/09/08 01:45:39;;;;;;;;;;;;;;;;;;5081520;28;20447;-55
2022/09/08 01:48:04;;;;;;;;;;;;;;;;;;5073600;28;20250;-57
2022/09/08 01:50:29;;;;;;;;;;;;;;;;;;5073127;28;19920;-56
2022/09/08 01:52:54;;;;;;;;;;;;;;;;;;5079473;28;20720;-55
2022/09/08 01:55:20;;;;;;;;;;;;;;;;;;5074432;28;19927;-55
2022/09/08 01:57:45;;;;;;;;;;;;;;;;;;5080930;28;19923;-57
2022/09/08 02:00:10;;;;;;;;;;;;;;;;;;5071894;28;20003;-57
2022/09/08 02:02:35;;;;;;;;;;;;;;;;;;5073636;28;19942;-57
2022/09/08 02:05:00;;;;;;;;;;;;;;;;;;5078540;28;20526;-58
2022/09/08 02:07:26;;;;;;;;;;;;;;;;;;5070149;28;19916;-56
2022/09/08 02:09:52;;;;;;;;;;;;;;;;;;5060944;28;20009;-55
2022/09/08 02:12:17;;;;;;;;;;;;;;;;;;5072489;28;19946;-57
2022/09/08 02:14:42;;;;;;;;;;;;;;;;;;5073432;28;19921;-57
2022/09/08 02:17:07;;;;;;;;;;;;;;;;;;5078815;28;19961;-57
2022/09/08 02:19:32;;;;;;;;;;;;;;;;;;5073208;28;19963;-54
2022/09/08 02:21:57;;;;;;;;;;;;;;;;;;5077393;28;20116;-57
2022/09/08 02:24:23;;;;;;;;;;;;;;;;;;5073697;28;20735;-57
2022/09/08 02:26:48;;;;;;;;;;;;;;;;;;5074092;28;19927;-57
2022/09/08 02:29:13;;;;;;;;;;;;;;;;;;5078835;28;20286;-55
2022/09/08 02:31:38;;;;;;;;;;;;;;;;;;5072513;28;19923;-57
2022/09/08 02:34:04;;;;;;;;;;;;;;;;;;5078657;28;20489;-58
2022/09/08 02:36:29;;;;;;;;;;;;;;;;;;5057885;28;19921;-56
2022/09/08 02:38:54;;;;;;;;;;;;;;;;;;5072305;28;19916;-57
2022/09/08 02:41:19;;;;;;;;;;;;;;;;;;5076898;28;20564;-56
2022/09/08 02:43:44;;;;;;;;;;;;;;;;;;5073272;28;19923;-54
2022/09/08 02:46:10;;;;;;;;;;;;;;;;;;5079259;28;20030;-56
2022/09/08 02:48:35;;;;;;;;;;;;;;;;;;5071836;28;20019;-53
2022/09/08 02:51:00;;;;;;;;;;;;;;;;;;5072557;28;19916;-56
2022/09/08 02:53:25;;;;;;;;;;;;;;;;;;5079917;28;19998;-55
2022/09/08 02:55:51;;;;;;;;;;;;;;;;;;5073241;28;20376;-57
2022/09/08 02:58:16;;;;;;;;;;;;;;;;;;5079877;28;20004;-56
2022/09/08 03:00:41;;;;;;;;;;;;;;;;;;5055328;28;20605;-55
2022/09/08 03:03:06;;;;;;;;;;;;;;;;;;5071916;28;20034;-55
2022/09/08 03:05:32;;;;;;;;;;;;;;;;;;5080089;28;19920;-57
2022/09/08 03:07:57;;;;;;;;;;;;;;;;;;5074534;28;19916;-57
2022/09/08 03:10:23;;;;;;;;;;;;;;;;;;5077124;28;19931;-56
2022/09/08 03:12:48;;;;;;;;;;;;;;;;;;5075936;28;19920;-57
2022/09/08 03:15:13;;;;;;;;;;;;;;;;;;5070379;28;19923;-57
2022/09/08 03:17:38;;;;;;;;;;;;;;;;;;5077810;28;19985;-57
2022/09/08 03:20:04;;;;;;;;;;;;;;;;;;5075831;28;19942;-56
2022/09/08 03:22:29;;;;;;;;;;;;;;;;;;5066017;28;20835;-58
2022/09/08 03:24:54;;;;;;;;;;;;;;;;;;5077641;28;19920;-58
2022/09/08 03:27:19;;;;;;;;;;;;;;;;;;5077748;28;20055;-56
2022/09/08 03:29:44;;;;;;;;;;;;;;;;;;5083597;28;20333;-57
2022/09/08 03:32:10;;;;;;;;;;;;;;;;;;5077874;28;19916;-57
2022/09/08 03:34:35;;;;;;;;;;;;;;;;;;5084192;28;19912;-58
2022/09/08 03:37:00;;;;;;;;;;;;;;;;;;5057500;28;19920;-58
2022/09/08 03:39:26;;;;;;;;;;;;;;;;;;5060609;28;20020;-55
2022/09/08 03:41:51;;;;;;;;;;;;;;;;;;5085392;28;19970;-56
2022/09/08 03:44:16;;;;;;;;;;;;;;;;;;5078185;28;19916;-57
2022/09/08 03:46:41;;;;;;;;;;;;;;;;;;5080955;28;19916;-60
2022/09/08 03:49:06;;;;;;;;;;;;;;;;;;5074103;28;19987;-57
2022/09/08 03:51:32;;;;;;;;;;;;;;;;;;5075718;28;20532;-56
2022/09/08 03:56:42;;;;;;;;;;;;;;;;;;5042874;28;20547;-58
2022/09/08 03:59:07;;;;;;;;;;;;;;;;;;5081371;28;19919;-57
2022/09/08 04:01:34;;;;;;;;;;;;;;;;;;5076578;28;20375;-56
2022/09/08 04:03:59;;;;;;;;;;;;;;;;;;5076684;28;19969;-58
2022/09/08 04:06:24;;;;;;;;;;;;;;;;;;5062929;28;19920;-57
2022/09/08 04:08:49;;;;;;;;;;;;;;;;;;5077228;28;20475;-55
2022/09/08 04:11:15;;;;;;;;;;;;;;;;;;5082564;28;19985;-53
2022/09/08 04:13:40;;;;;;;;;;;;;;;;;;5062233;28;19967;-58
2022/09/08 04:16:05;;;;;;;;;;;;;;;;;;5072678;28;20284;-58
2022/09/08 04:18:30;;;;;;;;;;;;;;;;;;5064661;28;19912;-57
2022/09/08 04:20:56;;;;;;;;;;;;;;;;;;5077089;28;19924;-56
2022/09/08 04:23:21;;;;;;;;;;;;;;;;;;5082249;28;19916;-57
2022/09/08 04:25:47;;;;;;;;;;;;;;;;;;5075489;28;19916;-54
2022/09/08 04:28:12;;;;;;;;;;;;;;;;;;5076352;28;19916;-56
2022/09/08 04:30:37;;;;;;;;;;;;;;;;;;5066823;28;20082;-55
2022/09/08 04:33:02;;;;;;;;;;;;;;;;;;5076461;28;19920;-56
2022/09/08 04:35:27;;;;;;;;;;;;;;;;;;5078716;28;20630;-53
2022/09/08 04:37:53;;;;;;;;;;;;;;;;;;5057426;28;20176;-57
2022/09/08 04:40:18;;;;;;;;;;;;;;;;;;5074112;28;19924;-55
2022/09/08 04:42:43;;;;;;;;;;;;;;;;;;5062312;28;19915;-52
2022/09/08 04:45:09;;;;;;;;;;;;;;;;;;5074907;28;19939;-57
2022/09/08 04:47:34;;;;;;;;;;;;;;;;;;5062898;28;19923;-58
2022/09/08 04:49:59;;;;;;;;;;;;;;;;;;5074515;28;19912;-53
2022/09/08 04:52:25;;;;;;;;;;;;;;;;;;5074760;28;19960;-56
2022/09/08 04:54:50;;;;;;;;;;;;;;;;;;5082669;28;20365;-55
2022/09/08 04:57:16;;;;;;;;;;;;;;;;;;5075127;28;19924;-55
2022/09/08 04:59:41;;;;;;;;;;;;;;;;;;5064768;28;20126;-56
2022/09/08 05:02:06;;;;;;;;;;;;;;;;;;5073245;28;19924;-57
2022/09/08 05:04:31;;;;;;;;;;;;;;;;;;5073764;28;20011;-56
2022/09/08 05:06:56;;;;;;;;;;;;;;;;;;5076541;28;19916;-55
2022/09/08 05:09:22;;;;;;;;;;;;;;;;;;5057518;28;20534;-58
2022/09/08 05:11:47;;;;;;;;;;;;;;;;;;5078596;28;19915;-57
2022/09/08 05:14:12;;;;;;;;;;;;;;;;;;5071693;28;19923;-53
2022/09/08 05:16:37;;;;;;;;;;;;;;;;;;5061265;28;19916;-55
2022/09/08 05:19:02;;;;;;;;;;;;;;;;;;5079901;28;19916;-56
2022/09/08 05:21:28;;;;;;;;;;;;;;;;;;5075723;28;20057;-57
2022/09/08 05:23:53;;;;;;;;;;;;;;;;;;5082187;28;19968;-57
2022/09/08 05:26:18;;;;;;;;;;;;;;;;;;5077563;28;19916;-57
2022/09/08 05:28:43;;;;;;;;;;;;;;;;;;5074537;28;19966;-55
2022/09/08 05:31:09;;;;;;;;;;;;;;;;;;5079140;28;19928;-58
2022/09/08 05:33:34;;;;;;;;;;;;;;;;;;5075270;28;19916;-56
2022/09/08 05:35:59;;;;;;;;;;;;;;;;;;5080700;28;19916;-56
2022/09/08 05:38:24;;;;;;;;;;;;;;;;;;5058360;28;21516;-54
2022/09/08 05:40:49;;;;;;;;;;;;;;;;;;5070585;28;20290;-55
2022/09/08 05:43:14;;;;;;;;;;;;;;;;;;5078791;28;19916;-53
2022/09/08 05:45:40;;;;;;;;;;;;;;;;;;5072902;28;20047;-57
2022/09/08 05:48:05;;;;;;;;;;;;;;;;;;5073444;28;19942;-58
2022/09/08 05:50:34;;;;;;;;;;;;;;;;;;5079652;28;20414;-56
2022/09/08 05:52:59;;;;;;;;;;;;;;;;;;5083816;28;19916;-57
2022/09/08 05:55:24;;;;;;;;;;;;;;;;;;5084137;28;20454;-56
2022/09/08 05:57:50;;;;;;;;;;;;;;;;;;5082903;28;19927;-55
2022/09/08 06:00:15;;;;;;;;;;;;;;;;;;5065175;28;19916;-55
2022/09/08 06:02:40;;;;;;;;;;;;;;;;;;5082211;28;19973;-56
2022/09/08 06:05:05;;;;;;;;;;;;;;;;;;5083111;28;19931;-56
2022/09/08 06:07:30;;;;;;;;;;;;;;;;;;5084217;28;19923;-56
2022/09/08 06:09:56;;;;;;;;;;;;;;;;;;5082926;28;19923;-54
2022/09/08 06:12:21;;;;;;;;;;;;;;;;;;5082456;28;19963;-56
2022/09/08 06:14:46;;;;;;;;;;;;;;;;;;5082706;28;19916;-56
2022/09/08 06:17:11;;;;;;;;;;;;;;;;;;5065625;28;19923;-54
2022/09/08 06:19:36;;;;;;;;;;;;;;;;;;5080706;28;20002;-56
2022/09/08 06:22:01;;;;;;;;;;;;;;;;;;5084245;28;20300;-56
2022/09/08 06:24:27;;;;;;;;;;;;;;;;;;5082403;28;20381;-58
2022/09/08 06:26:52;;;;;;;;;;;;;;;;;;5066876;28;19916;-58
2022/09/08 06:29:18;;;;;;;;;;;;;;;;;;5068490;28;19995;-59
2022/09/08 06:31:43;;;;;;;;;;;;;;;;;;5081833;28;19945;-58
2022/09/08 06:34:08;;;;;;;;;;;;;;;;;;5081506;28;19973;-59
2022/09/08 06:36:33;;;;;;;;;;;;;;;;;;5080059;28;19968;-59
2022/09/08 06:38:59;;;;;;;;;;;;;;;;;;5082684;28;20020;-60
2022/09/08 06:41:24;;;;;;;;;;;;;;;;;;5082647;28;19924;-59
2022/09/08 06:43:50;;;;;;;;;;;;;;;;;;5083644;28;19919;-59
2022/09/08 06:46:15;;;;;;;;;;;;;;;;;;5082511;28;19916;-60
2022/09/08 06:48:40;;;;;;;;;;;;;;;;;;5082135;28;20042;-60
2022/09/08 06:51:06;;;;;;;;;;;;;;;;;;5081990;28;20311;-59
2022/09/08 06:53:31;;;;;;;;;;;;;;;;;;5082395;28;20252;-59
2022/09/08 06:55:56;;;;;;;;;;;;;;;;;;5081526;28;19916;-59
2022/09/08 06:58:21;;;;;;;;;;;;;;;;;;5081474;28;19986;-59
2022/09/08 07:00:47;;;;;;;;;;;;;;;;;;5079103;28;20380;-58
2022/09/08 07:03:12;;;;;;;;;;;;;;;;;;5078832;28;20435;-59
2022/09/08 07:05:37;;;;;;;;;;;;;;;;;;5080036;28;19969;-60
2022/09/08 07:08:02;;;;;;;;;;;;;;;;;;5082781;28;19939;-59
2022/09/08 07:10:27;;;;;;;;;;;;;;;;;;5083045;28;19912;-60
2022/09/08 07:12:52;;;;;;;;;;;;;;;;;;5082532;28;20350;-58
2022/09/08 07:15:18;;;;;;;;;;;;;;;;;;5083499;28;19965;-59
2022/09/08 07:17:43;;;;;;;;;;;;;;;;;;5083225;28;19969;-59
2022/09/08 07:20:08;;;;;;;;;;;;;;;;;;5083344;28;19992;-60
2022/09/08 07:22:33;;;;;;;;;;;;;;;;;;5083859;28;19919;-60
2022/09/08 07:24:58;;;;;;;;;;;;;;;;;;5083636;28;19919;-60
2022/09/08 07:27:24;;;;;;;;;;;;;;;;;;5082578;28;19935;-61
2022/09/08 07:29:49;;;;;;;;;;;;;;;;;;5083331;28;20709;-60
2022/09/08 07:32:14;;;;;;;;;;;;;;;;;;5069152;28;20432;-60
2022/09/08 07:34:39;;;;;;;;;;;;;;;;;;5066685;28;19916;-60
2022/09/08 07:37:04;;;;;;;;;;;;;;;;;;5065688;28;20312;-59
2022/09/08 07:39:30;;;;;;;;;;;;;;;;;;5082925;28;19955;-58
2022/09/08 07:41:57;;;;;;;;;;;;;;;;;;5065350;28;20467;-60
2022/09/08 07:44:22;;;;;;;;;;;;;;;;;;5083189;28;19912;-59
2022/09/08 07:46:47;;;;;;;;;;;;;;;;;;5083835;28;19916;-60
2022/09/08 07:49:12;;;;;;;;;;;;;;;;;;5083728;28;19916;-60
2022/09/08 07:51:38;;;;;;;;;;;;;;;;;;5081570;28;19942;-60
2022/09/08 07:54:03;;;;;;;;;;;;;;;;;;5084222;28;19939;-60
2022/09/08 07:56:28;;;;;;;;;;;;;;;;;;5083569;28;19916;-59
2022/09/08 07:58:53;;;;;;;;;;;;;;;;;;5080365;28;19920;-60
2022/09/08 08:01:18;;;;;;;;;;;;;;;;;;5068000;28;19924;-60
2022/09/08 08:03:44;;;;;;;;;;;;;;;;;;5081444;28;19927;-60
2022/09/08 08:06:09;;;;;;;;;;;;;;;;;;5084049;28;19920;-59
2022/09/08 08:08:34;;;;;;;;;;;;;;;;;;5085850;28;20366;-59
2022/09/08 08:11:00;;;;;;;;;;;;;;;;;;5086341;28;19961;-59
2022/09/08 08:13:25;;;;;;;;;;;;;;;;;;5071152;28;20028;-59
2022/09/08 08:15:50;;;;;;;;;;;;;;;;;;5085449;28;20314;-58
2022/09/08 08:18:16;;;;;;;;;;;;;;;;;;5085252;28;19920;-59
2022/09/08 08:20:41;;;;;;;;;;;;;;;;;;5086658;28;19932;-59
2022/09/08 08:23:06;;;;;;;;;;;;;;;;;;5086693;28;19920;-58
2022/09/08 08:25:31;;;;;;;;;;;;;;;;;;5066098;28;20391;-58
2022/09/08 08:27:57;;;;;;;;;;;;;;;;;;5067925;28;20011;-59
2022/09/08 08:30:22;;;;;;;;;;;;;;;;;;5085135;28;19973;-58
2022/09/08 08:32:47;;;;;;;;;;;;;;;;;;5084311;28;19923;-59
2022/09/08 08:35:13;;;;;;;;;;;;;;;;;;5085216;28;19970;-58
2022/09/08 08:37:38;;;;;;;;;;;;;;;;;;5085953;28;19912;-58
2022/09/08 08:40:03;;;;;;;;;;;;;;;;;;5068601;28;19912;-60
2022/09/08 08:42:29;;;;;;;;;;;;;;;;;;5085486;28;20417;-61
2022/09/08 08:44:54;;;;;;;;;;;;;;;;;;5086589;28;19916;-59
2022/09/08 08:47:19;;;;;;;;;;;;;;;;;;5086374;28;19916;-61
2022/09/08 08:49:45;;;;;;;;;;;;;;;;;;5086997;28;20656;-59
2022/09/08 08:52:10;;;;;;;;;;;;;;;;;;5087040;28;20571;-60
2022/09/08 08:54:35;;;;;;;;;;;;;;;;;;5086603;28;19923;-59
2022/09/08 08:57:00;;;;;;;;;;;;;;;;;;5068390;28;19971;-59
2022/09/08 08:59:25;;;;;;;;;;;;;;;;;;5086110;28;20534;-59
2022/09/08 09:01:51;;;;;;;;;;;;;;;;;;5085416;28;20035;-60
2022/09/08 09:04:16;;;;;;;;;;;;;;;;;;5086244;28;19911;-59
2022/09/08 09:06:42;;;;;;;;;;;;;;;;;;5068125;28;19926;-59
2022/09/08 09:09:07;;;;;;;;;;;;;;;;;;5086864;28;19938;-59
2022/09/08 09:11:32;;;;;;;;;;;;;;;;;;5086257;28;19916;-59
2022/09/08 09:13:57;;;;;;;;;;;;;;;;;;5086324;28;19969;-58
2022/09/08 09:16:23;;;;;;;;;;;;;;;;;;5086156;28;19952;-59
2022/09/08 09:18:48;;;;;;;;;;;;;;;;;;5085269;28;19916;-59
2022/09/08 09:21:14;;;;;;;;;;;;;;;;;;5083918;28;20038;-60
2022/09/08 09:23:40;;;;;;;;;;;;;;;;;;5085471;28;19924;-59
2022/09/08 09:26:05;;;;;;;;;;;;;;;;;;5085741;28;19912;-59
2022/09/08 09:28:30;;;;;;;;;;;;;;;;;;5085732;28;19916;-59
2022/09/08 09:30:55;;;;;;;;;;;;;;;;;;5086327;28;19951;-59
2022/09/08 09:33:21;;;;;;;;;;;;;;;;;;5084638;28;19932;-59
2022/09/08 09:35:46;;;;;;;;;;;;;;;;;;5085373;28;19916;-58
2022/09/08 09:38:13;;;;;;;;;;;;;;;;;;5085283;28;20377;-59
2022/09/08 09:40:38;;;;;;;;;;;;;;;;;;5085933;28;19934;-59
2022/09/08 09:43:03;;;;;;;;;;;;;;;;;;5085492;28;19928;-59
2022/09/08 09:45:28;;;;;;;;;;;;;;;;;;5084674;28;19916;-59
2022/09/08 09:47:54;;;;;;;;;;;;;;;;;;5068263;28;19931;-59
2022/09/08 09:50:19;;;;;;;;;;;;;;;;;;5061496;28;19931;-59
2022/09/08 09:52:44;;;;;;;;;;;;;;;;;;5071484;28;20266;-58
2022/09/08 09:55:10;;;;;;;;;;;;;;;;;;5085168;28;20276;-58
2022/09/08 09:57:35;;;;;;;;;;;;;;;;;;5085911;28;19916;-59
2022/09/08 10:00:00;;;;;;;;;;;;;;;;;;5085379;28;19967;-58
2022/09/08 10:02:25;;;;;;;;;;;;;;;;;;5079049;28;19931;-58
2022/09/08 10:04:50;;;;;;;;;;;;;;;;;;5083015;28;20098;-58
2022/09/08 10:07:16;;;;;;;;;;;;;;;;;;5068688;28;19964;-58
2022/09/08 10:09:41;;;;;;;;;;;;;;;;;;5081198;28;19952;-58
2022/09/08 10:12:08;;;;;;;;;;;;;;;;;;5065312;28;19927;-58
2022/09/08 10:14:33;;;;;;;;;;;;;;;;;;5083256;28;19916;-62
2022/09/08 10:16:58;;;;;;;;;;;;;;;;;;5070688;28;19923;-60
2022/09/08 10:19:25;;;;;;;;;;;;;;;;;;5085323;28;19920;-59
2022/09/08 10:21:50;;;;;;;;;;;;;;;;;;5083856;28;19924;-59
2022/09/08 10:24:15;;;;;;;;;;;;;;;;;;5084865;28;20295;-58
2022/09/08 10:26:40;;;;;;;;;;;;;;;;;;5083538;28;19920;-61
2022/09/08 10:29:06;;;;;;;;;;;;;;;;;;5082847;28;19916;-59
2022/09/08 10:31:31;;;;;;;;;;;;;;;;;;5086953;28;19927;-60
2022/09/08 10:33:56;;;;;;;;;;;;;;;;;;5084401;28;20263;-59
2022/09/08 10:36:21;;;;;;;;;;;;;;;;;;5084856;28;19970;-60
2022/09/08 10:38:47;;;;;;;;;;;;;;;;;;5084272;28;20593;-59
2022/09/08 10:41:12;;;;;;;;;;;;;;;;;;5084880;28;19947;-60
2022/09/08 10:43:37;;;;;;;;;;;;;;;;;;5084946;28;20265;-59
2022/09/08 10:46:02;;;;;;;;;;;;;;;;;;5086118;28;19938;-57
2022/09/08 10:48:27;;;;;;;;;;;;;;;;;;5083875;28;19923;-57
2022/09/08 10:50:53;;;;;;;;;;;;;;;;;;5084172;28;19916;-59
2022/09/08 10:53:18;;;;;;;;;;;;;;;;;;5083184;28;20357;-59
2022/09/08 10:55:44;;;;;;;;;;;;;;;;;;5084410;28;19922;-58
2022/09/08 10:58:09;;;;;;;;;;;;;;;;;;5084485;28;19958;-58
2022/09/08 11:00:35;;;;;;;;;;;;;;;;;;5084554;28;19931;-57
2022/09/08 11:03:00;;;;;;;;;;;;;;;;;;5082395;28;20525;-58
2022/09/08 11:05:26;;;;;;;;;;;;;;;;;;5084010;28;19916;-58
2022/09/08 11:07:51;;;;;;;;;;;;;;;;;;5084598;28;20293;-58
2022/09/08 11:10:16;;;;;;;;;;;;;;;;;;5083999;28;19912;-59
2022/09/08 11:12:42;;;;;;;;;;;;;;;;;;5083554;28;20034;-59
2022/09/08 11:15:07;;;;;;;;;;;;;;;;;;5080520;28;19916;-61
2022/09/08 11:17:32;;;;;;;;;;;;;;;;;;5066960;28;19916;-58
2022/09/08 11:19:57;;;;;;;;;;;;;;;;;;5083320;28;19918;-61
2022/09/08 11:22:22;;;;;;;;;;;;;;;;;;5081355;28;20269;-57
2022/09/08 11:24:48;;;;;;;;;;;;;;;;;;5083132;28;19958;-59
2022/09/08 11:27:13;;;;;;;;;;;;;;;;;;5083677;28;19922;-58
2022/09/08 11:29:38;;;;;;;;;;;;;;;;;;5081231;28;19916;-58
2022/09/08 11:32:03;;;;;;;;;;;;;;;;;;5083136;28;19923;-58
2022/09/08 11:34:28;;;;;;;;;;;;;;;;;;5082318;28;19916;-58
2022/09/08 11:36:54;;;;;;;;;;;;;;;;;;5080463;28;19916;-58
2022/09/08 11:39:19;;;;;;;;;;;;;;;;;;5067193;28;19916;-59
2022/09/08 11:41:44;;;;;;;;;;;;;;;;;;5085433;28;20443;-58
2022/09/08 11:44:09;;;;;;;;;;;;;;;;;;5086102;28;19920;-59
2022/09/08 11:46:34;;;;;;;;;;;;;;;;;;5087254;28;19916;-59
2022/09/08 11:49:00;;;;;;;;;;;;;;;;;;5091354;28;19999;-58
2022/09/08 11:51:25;;;;;;;;;;;;;;;;;;5086336;28;19923;-58
2022/09/08 11:53:50;;;;;;;;;;;;;;;;;;5073676;28;19924;-58
2022/09/08 11:56:15;;;;;;;;;;;;;;;;;;5084486;28;20055;-58
2022/09/08 11:58:40;;;;;;;;;;;;;;;;;;5085888;28;19923;-58
2022/09/08 12:01:06;;;;;;;;;;;;;;;;;;5086659;28;19979;-59
2022/09/08 12:03:31;;;;;;;;;;;;;;;;;;5087390;28;19924;-59
2022/09/08 12:05:57;;;;;;;;;;;;;;;;;;5086740;28;19995;-58
2022/09/08 12:08:22;;;;;;;;;;;;;;;;;;5087342;28;19943;-62
2022/09/08 12:10:48;;;;;;;;;;;;;;;;;;5087945;28;19958;-58
2022/09/08 12:13:13;;;;;;;;;;;;;;;;;;5087069;28;19927;-58
2022/09/08 12:15:38;;;;;;;;;;;;;;;;;;5071049;28;20000;-59
2022/09/08 12:18:03;;;;;;;;;;;;;;;;;;5087591;28;19916;-58
2022/09/08 12:20:28;;;;;;;;;;;;;;;;;;5086593;28;20403;-59
2022/09/08 12:22:54;;;;;;;;;;;;;;;;;;5087507;28;20373;-59
2022/09/08 12:25:19;;;;;;;;;;;;;;;;;;5084520;28;19994;-59
2022/09/08 12:27:44;;;;;;;;;;;;;;;;;;5086456;28;19922;-59
2022/09/08 12:30:10;;;;;;;;;;;;;;;;;;5086223;28;20649;-59
2022/09/08 12:32:35;;;;;;;;;;;;;;;;;;5086050;28;20369;-58
2022/09/08 12:35:01;;;;;;;;;;;;;;;;;;5086233;28;19916;-59
2022/09/08 12:37:26;;;;;;;;;;;;;;;;;;5086690;28;20331;-58
2022/09/08 12:39:51;;;;;;;;;;;;;;;;;;5086521;28;19916;-59
2022/09/08 12:42:16;;;;;;;;;;;;;;;;;;5071741;28;19920;-58
2022/09/08 12:44:41;;;;;;;;;;;;;;;;;;5086719;28;19969;-59
2022/09/08 12:47:07;;;;;;;;;;;;;;;;;;5086765;28;20372;-58
2022/09/08 12:49:32;;;;;;;;;;;;;;;;;;5087534;28;19926;-58
2022/09/08 12:51:57;;;;;;;;;;;;;;;;;;5085278;28;20012;-59
2022/09/08 12:54:23;;;;;;;;;;;;;;;;;;5086676;28;19916;-58
2022/09/08 12:56:48;;;;;;;;;;;;;;;;;;5086203;28;20443;-58
2022/09/08 12:59:13;;;;;;;;;;;;;;;;;;5086890;28;20225;-59
2022/09/08 13:01:39;;;;;;;;;;;;;;;;;;5085541;28;19931;-60
2022/09/08 13:04:04;;;;;;;;;;;;;;;;;;5085501;28;19912;-59
2022/09/08 13:06:29;;;;;;;;;;;;;;;;;;5086073;28;20292;-60
2022/09/08 13:08:55;;;;;;;;;;;;;;;;;;5085807;28;20002;-59
2022/09/08 13:11:20;;;;;;;;;;;;;;;;;;5085703;28;20463;-59
2022/09/08 13:13:45;;;;;;;;;;;;;;;;;;5085377;28;19927;-59
2022/09/08 13:16:10;;;;;;;;;;;;;;;;;;5086339;28;19916;-58
2022/09/08 13:18:35;;;;;;;;;;;;;;;;;;5086352;28;19916;-59
2022/09/08 13:21:01;;;;;;;;;;;;;;;;;;5085090;28;19977;-59
2022/09/08 13:23:26;;;;;;;;;;;;;;;;;;5085711;28;20317;-59
2022/09/08 13:25:52;;;;;;;;;;;;;;;;;;5074878;28;19947;-60
2022/09/08 13:28:17;;;;;;;;;;;;;;;;;;5082606;28;20733;-59
2022/09/08 13:30:42;;;;;;;;;;;;;;;;;;5084357;28;20328;-59
2022/09/08 13:33:07;;;;;;;;;;;;;;;;;;5084270;28;19927;-59
2022/09/08 13:35:33;;;;;;;;;;;;;;;;;;5084573;28;19923;-58
2022/09/08 13:37:58;;;;;;;;;;;;;;;;;;5082267;28;19916;-61
2022/09/08 13:40:23;;;;;;;;;;;;;;;;;;5082950;28;20314;-59
2022/09/08 13:42:48;;;;;;;;;;;;;;;;;;5080580;28;20559;-60
2022/09/08 13:45:14;;;;;;;;;;;;;;;;;;5082392;28;19927;-59
2022/09/08 13:47:39;;;;;;;;;;;;;;;;;;5083234;28;20071;-60
2022/09/08 13:50:05;;;;;;;;;;;;;;;;;;5083732;28;19923;-60
2022/09/08 13:52:30;;;;;;;;;;;;;;;;;;5085971;28;19955;-60
2022/09/08 13:54:56;;;;;;;;;;;;;;;;;;5083085;28;19967;-58
2022/09/08 13:57:21;;;;;;;;;;;;;;;;;;5083921;28;19916;-58
2022/09/08 13:59:46;;;;;;;;;;;;;;;;;;5080944;28;19959;-58
2022/09/08 14:02:11;;;;;;;;;;;;;;;;;;5081990;28;19928;-58
2022/09/08 14:04:36;;;;;;;;;;;;;;;;;;5078836;28;20054;-58
2022/09/08 14:07:02;;;;;;;;;;;;;;;;;;5064246;28;19929;-59
2022/09/08 14:09:27;;;;;;;;;;;;;;;;;;5081577;28;20481;-58
2022/09/08 14:11:53;;;;;;;;;;;;;;;;;;5080115;28;19916;-59
2022/09/08 14:14:19;;;;;;;;;;;;;;;;;;5082952;28;19920;-59
2022/09/08 14:16:45;;;;;;;;;;;;;;;;;;5082398;28;19971;-59
2022/09/08 14:19:10;;;;;;;;;;;;;;;;;;5083909;28;19959;-59
2022/09/08 14:21:35;;;;;;;;;;;;;;;;;;5081540;28;19930;-60
2022/09/08 14:24:00;;;;;;;;;;;;;;;;;;5065120;28;20314;-59
2022/09/08 14:26:26;;;;;;;;;;;;;;;;;;5083537;28;20388;-60
2022/09/08 14:28:51;;;;;;;;;;;;;;;;;;5082464;28;19912;-60
2022/09/08 14:31:16;;;;;;;;;;;;;;;;;;5082940;28;19916;-59
2022/09/08 14:33:41;;;;;;;;;;;;;;;;;;5084977;28;19993;-62
2022/09/08 14:36:07;;;;;;;;;;;;;;;;;;5083389;28;19943;-58
2022/09/08 14:38:32;;;;;;;;;;;;;;;;;;5082450;28;19920;-59
2022/09/08 14:40:57;;;;;;;;;;;;;;;;;;5083023;28;19932;-59
2022/09/08 14:43:22;;;;;;;;;;;;;;;;;;5082671;28;20385;-59
2022/09/08 14:45:47;;;;;;;;;;;;;;;;;;5069249;28;19916;-61
2022/09/08 14:48:14;;;;;;;;;;;;;;;;;;5066771;28;19944;-58
2022/09/08 14:50:39;;;;;;;;;;;;;;;;;;5079817;28;19915;-59
2022/09/08 14:53:05;;;;;;;;;;;;;;;;;;5081882;28;19916;-58
2022/09/08 14:55:30;;;;;;;;;;;;;;;;;;5080703;28;19920;-59
2022/09/08 14:57:55;;;;;;;;;;;;;;;;;;5079667;28;20180;-59
2022/09/08 15:00:22;;;;;;;;;;;;;;;;;;5080098;28;19916;-58
2022/09/08 15:02:48;;;;;;;;;;;;;;;;;;5078868;28;19924;-59
2022/09/08 15:05:16;;;;;;;;;;;;;;;;;;5062805;28;20476;-59
2022/09/08 15:07:41;;;;;;;;;;;;;;;;;;5081777;28;19916;-59
2022/09/08 15:10:07;;;;;;;;;;;;;;;;;;5080713;28;19939;-58
2022/09/08 15:12:32;;;;;;;;;;;;;;;;;;5085609;28;19979;-59
2022/09/08 15:14:58;;;;;;;;;;;;;;;;;;5080958;28;19977;-59
2022/09/08 15:17:24;;;;;;;;;;;;;;;;;;5086747;28;19923;-58
2022/09/08 15:19:49;;;;;;;;;;;;;;;;;;5086165;28;19962;-59
2022/09/08 15:22:15;;;;;;;;;;;;;;;;;;5084571;28;19924;-59
2022/09/08 15:24:42;;;;;;;;;;;;;;;;;;5087153;28;19916;-59
2022/09/08 15:27:07;;;;;;;;;;;;;;;;;;5086830;28;19951;-59
2022/09/08 15:29:34;;;;;;;;;;;;;;;;;;5067284;28;19967;-59
2022/09/08 15:32:00;;;;;;;;;;;;;;;;;;5068263;28;20643;-58
2022/09/08 15:34:27;;;;;;;;;;;;;;;;;;5085976;28;19916;-60
2022/09/08 15:36:52;;;;;;;;;;;;;;;;;;5072449;28;20423;-60
2022/09/08 15:39:17;;;;;;;;;;;;;;;;;;5087008;28;19923;-60
2022/09/08 15:41:42;;;;;;;;;;;;;;;;;;5086701;28;19934;-58
2022/09/08 15:44:08;;;;;;;;;;;;;;;;;;5086419;28;19919;-58
2022/09/08 15:46:35;;;;;;;;;;;;;;;;;;5084017;28;19916;-59
2022/09/08 15:49:00;;;;;;;;;;;;;;;;;;5084423;28;19916;-58
2022/09/08 15:51:26;;;;;;;;;;;;;;;;;;5084673;28;20580;-59
2022/09/08 15:53:53;;;;;;;;;;;;;;;;;;5083732;28;19974;-59
2022/09/08 15:56:18;;;;;;;;;;;;;;;;;;5085317;28;20564;-59
2022/09/08 15:58:43;;;;;;;;;;;;;;;;;;5084421;28;19916;-59
2022/09/08 16:01:08;;;;;;;;;;;;;;;;;;5084814;28;19931;-59
2022/09/08 16:03:34;;;;;;;;;;;;;;;;;;5067344;28;19948;-59
2022/09/08 16:06:03;;;;;;;;;;;;;;;;;;5084290;28;19916;-59
2022/09/08 16:08:28;;;;;;;;;;;;;;;;;;5066766;28;20233;-59
2022/09/08 16:10:53;;;;;;;;;;;;;;;;;;5085864;28;20367;-59
2022/09/08 16:13:18;;;;;;;;;;;;;;;;;;5085708;28;19951;-59
2022/09/08 16:15:43;;;;;;;;;;;;;;;;;;5085630;28;19922;-60
2022/09/08 16:18:08;;;;;;;;;;;;;;;;;;5085039;28;19916;-59
2022/09/08 16:20:34;;;;;;;;;;;;;;;;;;5088982;28;19916;-60
2022/09/08 16:22:59;;;;;;;;;;;;;;;;;;5084602;28;20141;-60
2022/09/08 16:25:24;;;;;;;;;;;;;;;;;;5079188;28;19916;-59
2022/09/08 16:27:50;;;;;;;;;;;;;;;;;;5081154;28;19955;-60
2022/09/08 16:30:15;;;;;;;;;;;;;;;;;;5081951;28;19967;-59
2022/09/08 16:32:42;;;;;;;;;;;;;;;;;;5064569;28;19920;-59
2022/09/08 16:35:07;;;;;;;;;;;;;;;;;;5081487;28;19916;-58
2022/09/08 16:37:33;;;;;;;;;;;;;;;;;;5082034;28;19920;-59